sensor_id;sensor_type;location;lat;lon;timestamp;P1;durP1;ratioP1;P2;durP2;ratioP2
48034;SDS011;33812;46.480;6.834;2023-01-08T00:01:36;1.38;;;0.90;;
48034;SDS011;33812;46.480;6.834;2023-01-08T00:05:38;2.63;;;0.70;;
48034;SDS011;33812;46.480;6.834;2023-01-08T00:09:42;1.05;;;0.77;;
48034;SDS011;33812;46.480;6.834;2023-01-08T00:13:43;1.00;;;0.80;;
48034;SDS011;33812;46.480;6.834;2023-01-08T00:17:45;0.73;;;0.60;;
48034;SDS011;33812;46.480;6.834;2023-01-08T00:21:47;1.70;;;0.80;;
48034;SDS011;33812;46.480;6.834;2023-01-08T00:25:50;1.65;;;0.88;;
48034;SDS011;33812;46.480;6.834;2023-01-08T00:29:52;0.90;;;0.60;;
48034;SDS011;33812;46.480;6.834;2023-01-08T00:33:53;0.90;;;0.60;;
48034;SDS011;33812;46.480;6.834;2023-01-08T00:37:55;1.23;;;0.80;;
48034;SDS011;33812;46.480;6.834;2023-01-08T00:41:58;1.30;;;0.70;;
48034;SDS011;33812;46.480;6.834;2023-01-08T00:46:00;1.50;;;0.80;;
48034;SDS011;33812;46.480;6.834;2023-01-08T00:50:02;0.50;;;0.50;;
48034;SDS011;33812;46.480;6.834;2023-01-08T00:54:04;1.05;;;0.77;;
48034;SDS011;33812;46.480;6.834;2023-01-08T00:58:08;0.80;;;0.77;;
48034;SDS011;33812;46.480;6.834;2023-01-08T01:02:09;1.13;;;0.70;;
48034;SDS011;33812;46.480;6.834;2023-01-08T01:06:11;0.82;;;0.70;;
48034;SDS011;33812;46.480;6.834;2023-01-08T01:10:14;2.30;;;0.75;;
48034;SDS011;33812;46.480;6.834;2023-01-08T01:14:17;0.88;;;0.82;;
48034;SDS011;33812;46.480;6.834;2023-01-08T01:18:19;1.83;;;0.90;;
48034;SDS011;33812;46.480;6.834;2023-01-08T01:22:21;0.93;;;0.65;;
48034;SDS011;33812;46.480;6.834;2023-01-08T01:26:23;4.07;;;1.00;;
48034;SDS011;33812;46.480;6.834;2023-01-08T01:30:26;1.73;;;0.80;;
48034;SDS011;33812;46.480;6.834;2023-01-08T01:34:28;2.80;;;0.93;;
48034;SDS011;33812;46.480;6.834;2023-01-08T01:38:30;4.00;;;0.88;;
48034;SDS011;33812;46.480;6.834;2023-01-08T01:42:32;0.82;;;0.70;;
48034;SDS011;33812;46.480;6.834;2023-01-08T01:46:44;2.88;;;0.88;;
48034;SDS011;33812;46.480;6.834;2023-01-08T01:50:49;1.63;;;0.80;;
48034;SDS011;33812;46.480;6.834;2023-01-08T01:58:55;1.58;;;0.82;;
48034;SDS011;33812;46.480;6.834;2023-01-08T02:02:58;1.33;;;0.93;;
48034;SDS011;33812;46.480;6.834;2023-01-08T02:07:01;1.15;;;0.85;;
48034;SDS011;33812;46.480;6.834;2023-01-08T02:11:13;0.75;;;0.63;;
48034;SDS011;33812;46.480;6.834;2023-01-08T02:15:20;1.73;;;0.80;;
48034;SDS011;33812;46.480;6.834;2023-01-08T02:19:33;0.90;;;0.75;;
48034;SDS011;33812;46.480;6.834;2023-01-08T02:23:41;2.15;;;0.70;;
48034;SDS011;33812;46.480;6.834;2023-01-08T02:27:49;0.80;;;0.60;;
48034;SDS011;33812;46.480;6.834;2023-01-08T02:31:54;1.80;;;0.80;;
48034;SDS011;33812;46.480;6.834;2023-01-08T02:36:09;1.60;;;0.60;;
48034;SDS011;33812;46.480;6.834;2023-01-08T02:40:23;1.25;;;0.70;;
48034;SDS011;33812;46.480;6.834;2023-01-08T02:44:36;2.47;;;0.70;;
48034;SDS011;33812;46.480;6.834;2023-01-08T02:48:48;1.00;;;0.70;;
48034;SDS011;33812;46.480;6.834;2023-01-08T02:52:55;0.98;;;0.85;;
48034;SDS011;33812;46.480;6.834;2023-01-08T02:57:02;1.40;;;0.82;;
48034;SDS011;33812;46.480;6.834;2023-01-08T03:01:10;3.28;;;1.27;;
48034;SDS011;33812;46.480;6.834;2023-01-08T03:05:18;1.52;;;1.00;;
48034;SDS011;33812;46.480;6.834;2023-01-08T03:09:24;5.80;;;1.42;;
48034;SDS011;33812;46.480;6.834;2023-01-08T03:13:26;3.97;;;1.48;;
48034;SDS011;33812;46.480;6.834;2023-01-08T03:17:34;3.90;;;1.38;;
48034;SDS011;33812;46.480;6.834;2023-01-08T03:21:40;3.35;;;1.20;;
48034;SDS011;33812;46.480;6.834;2023-01-08T03:25:45;1.42;;;0.85;;
48034;SDS011;33812;46.480;6.834;2023-01-08T03:29:48;4.05;;;1.50;;
48034;SDS011;33812;46.480;6.834;2023-01-08T03:33:54;3.17;;;1.20;;
48034;SDS011;33812;46.480;6.834;2023-01-08T03:37:57;3.53;;;0.90;;
48034;SDS011;33812;46.480;6.834;2023-01-08T03:42:05;4.10;;;1.58;;
48034;SDS011;33812;46.480;6.834;2023-01-08T03:46:10;1.88;;;0.85;;
48034;SDS011;33812;46.480;6.834;2023-01-08T03:50:18;3.25;;;1.20;;
48034;SDS011;33812;46.480;6.834;2023-01-08T03:54:23;5.53;;;1.33;;
48034;SDS011;33812;46.480;6.834;2023-01-08T03:58:30;3.67;;;1.25;;
48034;SDS011;33812;46.480;6.834;2023-01-08T04:02:31;4.75;;;1.30;;
48034;SDS011;33812;46.480;6.834;2023-01-08T04:06:34;5.28;;;1.92;;
48034;SDS011;33812;46.480;6.834;2023-01-08T04:10:36;4.40;;;1.42;;
48034;SDS011;33812;46.480;6.834;2023-01-08T04:14:38;4.15;;;1.75;;
48034;SDS011;33812;46.480;6.834;2023-01-08T04:18:40;3.20;;;1.60;;
48034;SDS011;33812;46.480;6.834;2023-01-08T04:22:43;5.97;;;1.40;;
48034;SDS011;33812;46.480;6.834;2023-01-08T04:26:44;6.93;;;1.40;;
48034;SDS011;33812;46.480;6.834;2023-01-08T04:30:46;1.35;;;0.90;;
48034;SDS011;33812;46.480;6.834;2023-01-08T04:34:48;3.13;;;1.50;;
48034;SDS011;33812;46.480;6.834;2023-01-08T04:38:51;2.15;;;1.05;;
48034;SDS011;33812;46.480;6.834;2023-01-08T04:42:53;4.75;;;1.00;;
48034;SDS011;33812;46.480;6.834;2023-01-08T04:46:54;4.40;;;1.55;;
48034;SDS011;33812;46.480;6.834;2023-01-08T04:50:56;2.45;;;1.25;;
48034;SDS011;33812;46.480;6.834;2023-01-08T04:55:00;5.15;;;1.73;;
48034;SDS011;33812;46.480;6.834;2023-01-08T04:59:02;2.83;;;1.20;;
48034;SDS011;33812;46.480;6.834;2023-01-08T05:03:04;2.97;;;1.10;;
48034;SDS011;33812;46.480;6.834;2023-01-08T05:07:06;2.85;;;1.30;;
48034;SDS011;33812;46.480;6.834;2023-01-08T05:11:09;2.22;;;1.08;;
48034;SDS011;33812;46.480;6.834;2023-01-08T05:15:11;2.60;;;0.90;;
48034;SDS011;33812;46.480;6.834;2023-01-08T05:19:12;1.92;;;1.02;;
48034;SDS011;33812;46.480;6.834;2023-01-08T05:23:14;1.80;;;1.20;;
48034;SDS011;33812;46.480;6.834;2023-01-08T05:27:18;1.25;;;1.00;;
48034;SDS011;33812;46.480;6.834;2023-01-08T05:31:19;1.67;;;1.15;;
48034;SDS011;33812;46.480;6.834;2023-01-08T05:35:21;1.42;;;0.57;;
48034;SDS011;33812;46.480;6.834;2023-01-08T05:39:23;1.73;;;0.80;;
48034;SDS011;33812;46.480;6.834;2023-01-08T05:43:26;2.28;;;1.10;;
48034;SDS011;33812;46.480;6.834;2023-01-08T05:47:28;1.48;;;0.77;;
48034;SDS011;33812;46.480;6.834;2023-01-08T05:51:30;1.15;;;0.80;;
48034;SDS011;33812;46.480;6.834;2023-01-08T05:55:32;1.58;;;0.90;;
48034;SDS011;33812;46.480;6.834;2023-01-08T05:59:35;1.42;;;0.63;;
48034;SDS011;33812;46.480;6.834;2023-01-08T06:03:37;1.40;;;0.90;;
48034;SDS011;33812;46.480;6.834;2023-01-08T06:07:39;3.10;;;0.90;;
48034;SDS011;33812;46.480;6.834;2023-01-08T06:11:41;1.77;;;0.70;;
48034;SDS011;33812;46.480;6.834;2023-01-08T06:15:44;1.77;;;0.80;;
48034;SDS011;33812;46.480;6.834;2023-01-08T06:19:46;1.45;;;0.70;;
48034;SDS011;33812;46.480;6.834;2023-01-08T06:23:47;1.42;;;0.90;;
48034;SDS011;33812;46.480;6.834;2023-01-08T06:27:49;0.95;;;0.60;;
48034;SDS011;33812;46.480;6.834;2023-01-08T06:31:52;1.98;;;0.82;;
48034;SDS011;33812;46.480;6.834;2023-01-08T06:35:54;2.05;;;0.70;;
48034;SDS011;33812;46.480;6.834;2023-01-08T06:40:00;1.55;;;0.80;;
48034;SDS011;33812;46.480;6.834;2023-01-08T06:44:02;1.65;;;1.00;;
48034;SDS011;33812;46.480;6.834;2023-01-08T06:48:05;1.00;;;0.75;;
48034;SDS011;33812;46.480;6.834;2023-01-08T06:52:07;1.17;;;0.63;;
48034;SDS011;33812;46.480;6.834;2023-01-08T06:56:09;1.50;;;0.88;;
48034;SDS011;33812;46.480;6.834;2023-01-08T07:00:11;1.17;;;0.80;;
48034;SDS011;33812;46.480;6.834;2023-01-08T07:04:15;1.45;;;1.00;;
48034;SDS011;33812;46.480;6.834;2023-01-08T07:08:17;3.85;;;0.90;;
48034;SDS011;33812;46.480;6.834;2023-01-08T07:12:19;1.88;;;1.00;;
48034;SDS011;33812;46.480;6.834;2023-01-08T07:16:20;2.50;;;0.80;;
48034;SDS011;33812;46.480;6.834;2023-01-08T07:20:23;2.08;;;0.90;;
48034;SDS011;33812;46.480;6.834;2023-01-08T07:24:25;1.48;;;0.90;;
48034;SDS011;33812;46.480;6.834;2023-01-08T07:28:27;6.50;;;1.08;;
48034;SDS011;33812;46.480;6.834;2023-01-08T07:32:29;9.10;;;0.82;;
48034;SDS011;33812;46.480;6.834;2023-01-08T07:36:32;3.17;;;1.20;;
48034;SDS011;33812;46.480;6.834;2023-01-08T07:40:34;1.83;;;0.95;;
48034;SDS011;33812;46.480;6.834;2023-01-08T07:44:35;1.88;;;0.95;;
48034;SDS011;33812;46.480;6.834;2023-01-08T07:48:37;1.92;;;0.85;;
48034;SDS011;33812;46.480;6.834;2023-01-08T07:52:40;5.25;;;0.75;;
48034;SDS011;33812;46.480;6.834;2023-01-08T07:56:42;1.40;;;0.80;;
48034;SDS011;33812;46.480;6.834;2023-01-08T08:00:44;1.48;;;0.63;;
48034;SDS011;33812;46.480;6.834;2023-01-08T08:04:46;3.03;;;0.90;;
48034;SDS011;33812;46.480;6.834;2023-01-08T08:08:49;2.15;;;0.68;;
48034;SDS011;33812;46.480;6.834;2023-01-08T08:12:50;1.00;;;0.80;;
48034;SDS011;33812;46.480;6.834;2023-01-08T08:16:52;4.00;;;0.95;;
48034;SDS011;33812;46.480;6.834;2023-01-08T08:20:54;2.55;;;0.90;;
48034;SDS011;33812;46.480;6.834;2023-01-08T08:24:58;2.28;;;1.05;;
48034;SDS011;33812;46.480;6.834;2023-01-08T08:29:00;0.80;;;0.60;;
48034;SDS011;33812;46.480;6.834;2023-01-08T08:33:03;1.40;;;0.80;;
48034;SDS011;33812;46.480;6.834;2023-01-08T08:37:06;1.00;;;0.63;;
48034;SDS011;33812;46.480;6.834;2023-01-08T08:41:10;1.55;;;0.77;;
48034;SDS011;33812;46.480;6.834;2023-01-08T08:45:11;6.47;;;1.15;;
48034;SDS011;33812;46.480;6.834;2023-01-08T08:49:14;0.65;;;0.43;;
48034;SDS011;33812;46.480;6.834;2023-01-08T08:53:15;0.82;;;0.63;;
48034;SDS011;33812;46.480;6.834;2023-01-08T08:57:18;2.15;;;0.60;;
48034;SDS011;33812;46.480;6.834;2023-01-08T09:01:23;1.83;;;0.70;;
48034;SDS011;33812;46.480;6.834;2023-01-08T09:05:24;1.42;;;0.68;;
48034;SDS011;33812;46.480;6.834;2023-01-08T09:09:26;1.52;;;0.70;;
48034;SDS011;33812;46.480;6.834;2023-01-08T09:13:29;1.52;;;0.68;;
48034;SDS011;33812;46.480;6.834;2023-01-08T09:17:32;1.08;;;0.65;;
48034;SDS011;33812;46.480;6.834;2023-01-08T09:21:35;2.65;;;0.70;;
48034;SDS011;33812;46.480;6.834;2023-01-08T09:25:37;2.55;;;0.52;;
48034;SDS011;33812;46.480;6.834;2023-01-08T09:29:40;1.42;;;0.70;;
48034;SDS011;33812;46.480;6.834;2023-01-08T09:33:42;7.78;;;0.88;;
48034;SDS011;33812;46.480;6.834;2023-01-08T09:37:49;4.13;;;1.27;;
48034;SDS011;33812;46.480;6.834;2023-01-08T09:41:51;5.40;;;1.02;;
48034;SDS011;33812;46.480;6.834;2023-01-08T09:45:56;3.08;;;0.60;;
48034;SDS011;33812;46.480;6.834;2023-01-08T09:50:05;0.85;;;0.50;;
48034;SDS011;33812;46.480;6.834;2023-01-08T09:54:12;1.70;;;0.60;;
48034;SDS011;33812;46.480;6.834;2023-01-08T09:58:20;0.50;;;0.50;;
48034;SDS011;33812;46.480;6.834;2023-01-08T10:02:30;0.80;;;0.50;;
48034;SDS011;33812;46.480;6.834;2023-01-08T10:06:34;0.77;;;0.60;;
48034;SDS011;33812;46.480;6.834;2023-01-08T10:10:36;0.40;;;0.40;;
48034;SDS011;33812;46.480;6.834;2023-01-08T10:14:39;6.28;;;0.70;;
48034;SDS011;33812;46.480;6.834;2023-01-08T10:18:48;0.40;;;0.40;;
48034;SDS011;33812;46.480;6.834;2023-01-08T10:22:50;0.90;;;0.50;;
48034;SDS011;33812;46.480;6.834;2023-01-08T10:26:53;0.50;;;0.40;;
48034;SDS011;33812;46.480;6.834;2023-01-08T10:31:06;1.15;;;0.60;;
48034;SDS011;33812;46.480;6.834;2023-01-08T10:35:15;1.10;;;0.35;;
48034;SDS011;33812;46.480;6.834;2023-01-08T10:39:20;1.27;;;0.50;;
48034;SDS011;33812;46.480;6.834;2023-01-08T10:43:26;0.30;;;0.30;;
48034;SDS011;33812;46.480;6.834;2023-01-08T10:47:30;0.43;;;0.37;;
48034;SDS011;33812;46.480;6.834;2023-01-08T10:51:37;0.40;;;0.40;;
48034;SDS011;33812;46.480;6.834;2023-01-08T10:55:56;0.88;;;0.40;;
48034;SDS011;33812;46.480;6.834;2023-01-08T10:59:58;0.35;;;0.35;;
48034;SDS011;33812;46.480;6.834;2023-01-08T11:04:01;0.85;;;0.65;;
48034;SDS011;33812;46.480;6.834;2023-01-08T11:08:12;0.93;;;0.50;;
48034;SDS011;33812;46.480;6.834;2023-01-08T11:12:27;1.77;;;0.45;;
48034;SDS011;33812;46.480;6.834;2023-01-08T11:16:33;0.47;;;0.30;;
48034;SDS011;33812;46.480;6.834;2023-01-08T11:20:37;0.50;;;0.38;;
48034;SDS011;33812;46.480;6.834;2023-01-08T11:24:42;0.57;;;0.45;;
48034;SDS011;33812;46.480;6.834;2023-01-08T11:28:46;0.57;;;0.40;;
48034;SDS011;33812;46.480;6.834;2023-01-08T11:32:53;0.63;;;0.60;;
48034;SDS011;33812;46.480;6.834;2023-01-08T11:37:04;0.95;;;0.45;;
48034;SDS011;33812;46.480;6.834;2023-01-08T11:41:17;0.82;;;0.40;;
48034;SDS011;33812;46.480;6.834;2023-01-08T11:45:28;0.30;;;0.30;;
48034;SDS011;33812;46.480;6.834;2023-01-08T11:49:53;0.40;;;0.30;;
48034;SDS011;33812;46.480;6.834;2023-01-08T11:54:05;1.23;;;0.50;;
48034;SDS011;33812;46.480;6.834;2023-01-08T11:58:26;1.48;;;0.40;;
48034;SDS011;33812;46.480;6.834;2023-01-08T12:02:38;0.40;;;0.40;;
48034;SDS011;33812;46.480;6.834;2023-01-08T12:06:52;0.70;;;0.50;;
48034;SDS011;33812;46.480;6.834;2023-01-08T12:11:05;0.40;;;0.40;;
48034;SDS011;33812;46.480;6.834;2023-01-08T12:15:17;0.50;;;0.40;;
48034;SDS011;33812;46.480;6.834;2023-01-08T12:19:28;0.40;;;0.40;;
48034;SDS011;33812;46.480;6.834;2023-01-08T12:23:44;0.50;;;0.40;;
48034;SDS011;33812;46.480;6.834;2023-01-08T12:28:03;0.50;;;0.47;;
48034;SDS011;33812;46.480;6.834;2023-01-08T12:32:26;0.50;;;0.22;;
48034;SDS011;33812;46.480;6.834;2023-01-08T12:36:36;0.80;;;0.40;;
48034;SDS011;33812;46.480;6.834;2023-01-08T12:40:42;0.85;;;0.55;;
48034;SDS011;33812;46.480;6.834;2023-01-08T12:44:49;1.77;;;0.60;;
48034;SDS011;33812;46.480;6.834;2023-01-08T12:48:55;0.57;;;0.30;;
48034;SDS011;33812;46.480;6.834;2023-01-08T12:52:58;0.30;;;0.30;;
48034;SDS011;33812;46.480;6.834;2023-01-08T12:57:04;0.70;;;0.40;;
48034;SDS011;33812;46.480;6.834;2023-01-08T13:01:15;0.75;;;0.45;;
48034;SDS011;33812;46.480;6.834;2023-01-08T13:05:29;1.27;;;0.50;;
48034;SDS011;33812;46.480;6.834;2023-01-08T13:09:34;0.52;;;0.40;;
48034;SDS011;33812;46.480;6.834;2023-01-08T13:13:36;0.70;;;0.55;;
48034;SDS011;33812;46.480;6.834;2023-01-08T13:21:50;1.65;;;0.45;;
48034;SDS011;33812;46.480;6.834;2023-01-08T13:25:55;0.40;;;0.40;;
48034;SDS011;33812;46.480;6.834;2023-01-08T13:29:58;0.50;;;0.40;;
48034;SDS011;33812;46.480;6.834;2023-01-08T13:34:01;0.30;;;0.30;;
48034;SDS011;33812;46.480;6.834;2023-01-08T13:38:13;0.32;;;0.30;;
48034;SDS011;33812;46.480;6.834;2023-01-08T13:42:21;0.52;;;0.30;;
48034;SDS011;33812;46.480;6.834;2023-01-08T13:46:27;0.88;;;0.43;;
48034;SDS011;33812;46.480;6.834;2023-01-08T13:50:29;0.30;;;0.30;;
48034;SDS011;33812;46.480;6.834;2023-01-08T13:54:34;0.88;;;0.38;;
48034;SDS011;33812;46.480;6.834;2023-01-08T13:58:40;0.65;;;0.43;;
48034;SDS011;33812;46.480;6.834;2023-01-08T14:02:45;0.60;;;0.40;;
48034;SDS011;33812;46.480;6.834;2023-01-08T14:06:49;0.30;;;0.30;;
48034;SDS011;33812;46.480;6.834;2023-01-08T14:10:52;0.47;;;0.38;;
48034;SDS011;33812;46.480;6.834;2023-01-08T14:14:55;0.20;;;0.20;;
48034;SDS011;33812;46.480;6.834;2023-01-08T14:18:59;0.30;;;0.30;;
48034;SDS011;33812;46.480;6.834;2023-01-08T14:23:02;0.43;;;0.30;;
48034;SDS011;33812;46.480;6.834;2023-01-08T14:27:19;0.32;;;0.32;;
48034;SDS011;33812;46.480;6.834;2023-01-08T14:31:23;0.30;;;0.30;;
48034;SDS011;33812;46.480;6.834;2023-01-08T14:35:27;0.50;;;0.50;;
48034;SDS011;33812;46.480;6.834;2023-01-08T14:39:32;0.60;;;0.60;;
48034;SDS011;33812;46.480;6.834;2023-01-08T14:43:39;0.38;;;0.30;;
48034;SDS011;33812;46.480;6.834;2023-01-08T14:47:44;0.40;;;0.40;;
48034;SDS011;33812;46.480;6.834;2023-01-08T14:55:52;1.25;;;0.40;;
48034;SDS011;33812;46.480;6.834;2023-01-08T14:59:59;1.40;;;0.47;;
48034;SDS011;33812;46.480;6.834;2023-01-08T15:04:03;0.65;;;0.40;;
48034;SDS011;33812;46.480;6.834;2023-01-08T15:08:20;0.22;;;0.20;;
48034;SDS011;33812;46.480;6.834;2023-01-08T15:12:26;0.57;;;0.40;;
48034;SDS011;33812;46.480;6.834;2023-01-08T15:16:32;0.45;;;0.30;;
48034;SDS011;33812;46.480;6.834;2023-01-08T15:20:44;1.02;;;0.40;;
48034;SDS011;33812;46.480;6.834;2023-01-08T15:24:51;5.55;;;0.40;;
48034;SDS011;33812;46.480;6.834;2023-01-08T15:29:06;1.00;;;0.30;;
48034;SDS011;33812;46.480;6.834;2023-01-08T15:33:17;1.10;;;0.28;;
48034;SDS011;33812;46.480;6.834;2023-01-08T15:37:20;0.95;;;0.47;;
48034;SDS011;33812;46.480;6.834;2023-01-08T15:41:23;2.53;;;0.30;;
48034;SDS011;33812;46.480;6.834;2023-01-08T15:45:48;0.60;;;0.30;;
48034;SDS011;33812;46.480;6.834;2023-01-08T15:49:52;1.02;;;0.30;;
48034;SDS011;33812;46.480;6.834;2023-01-08T15:53:54;1.88;;;0.60;;
48034;SDS011;33812;46.480;6.834;2023-01-08T15:57:56;0.57;;;0.43;;
48034;SDS011;33812;46.480;6.834;2023-01-08T16:01:59;0.85;;;0.45;;
48034;SDS011;33812;46.480;6.834;2023-01-08T16:06:05;0.30;;;0.30;;
48034;SDS011;33812;46.480;6.834;2023-01-08T16:10:08;3.28;;;0.30;;
48034;SDS011;33812;46.480;6.834;2023-01-08T16:14:24;0.45;;;0.30;;
48034;SDS011;33812;46.480;6.834;2023-01-08T16:18:27;0.30;;;0.30;;
48034;SDS011;33812;46.480;6.834;2023-01-08T16:22:30;2.63;;;0.68;;
48034;SDS011;33812;46.480;6.834;2023-01-08T16:26:32;0.90;;;0.50;;
48034;SDS011;33812;46.480;6.834;2023-01-08T16:30:33;3.33;;;0.70;;
48034;SDS011;33812;46.480;6.834;2023-01-08T16:34:35;1.52;;;0.57;;
48034;SDS011;33812;46.480;6.834;2023-01-08T16:38:38;3.60;;;0.55;;
48034;SDS011;33812;46.480;6.834;2023-01-08T16:42:40;1.50;;;0.32;;
48034;SDS011;33812;46.480;6.834;2023-01-08T16:46:42;3.88;;;0.35;;
48034;SDS011;33812;46.480;6.834;2023-01-08T16:50:44;2.22;;;0.50;;
48034;SDS011;33812;46.480;6.834;2023-01-08T16:54:47;0.85;;;0.80;;
48034;SDS011;33812;46.480;6.834;2023-01-08T16:58:49;0.57;;;0.38;;
48034;SDS011;33812;46.480;6.834;2023-01-08T17:02:51;1.95;;;0.60;;
48034;SDS011;33812;46.480;6.834;2023-01-08T17:06:53;2.90;;;0.50;;
48034;SDS011;33812;46.480;6.834;2023-01-08T17:10:56;4.03;;;0.50;;
48034;SDS011;33812;46.480;6.834;2023-01-08T17:15:04;2.72;;;0.50;;
48034;SDS011;33812;46.480;6.834;2023-01-08T17:19:07;1.42;;;0.47;;
48034;SDS011;33812;46.480;6.834;2023-01-08T17:23:09;0.32;;;0.28;;
48034;SDS011;33812;46.480;6.834;2023-01-08T17:27:12;2.30;;;0.50;;
48034;SDS011;33812;46.480;6.834;2023-01-08T17:31:14;0.60;;;0.30;;
48034;SDS011;33812;46.480;6.834;2023-01-08T17:35:18;0.85;;;0.30;;
48034;SDS011;33812;46.480;6.834;2023-01-08T17:39:31;0.40;;;0.40;;
48034;SDS011;33812;46.480;6.834;2023-01-08T17:43:35;0.77;;;0.50;;
48034;SDS011;33812;46.480;6.834;2023-01-08T17:51:41;9.48;;;0.68;;
48034;SDS011;33812;46.480;6.834;2023-01-08T17:55:44;8.73;;;1.27;;
48034;SDS011;33812;46.480;6.834;2023-01-08T17:59:49;11.13;;;1.23;;
48034;SDS011;33812;46.480;6.834;2023-01-08T18:03:57;4.55;;;1.33;;
48034;SDS011;33812;46.480;6.834;2023-01-08T18:07:59;4.97;;;1.38;;
48034;SDS011;33812;46.480;6.834;2023-01-08T18:12:01;9.00;;;1.83;;
48034;SDS011;33812;46.480;6.834;2023-01-08T18:16:05;3.03;;;0.90;;
48034;SDS011;33812;46.480;6.834;2023-01-08T18:20:10;3.65;;;0.90;;
48034;SDS011;33812;46.480;6.834;2023-01-08T18:24:13;13.63;;;1.50;;
48034;SDS011;33812;46.480;6.834;2023-01-08T18:28:15;5.53;;;1.10;;
48034;SDS011;33812;46.480;6.834;2023-01-08T18:32:18;3.30;;;1.08;;
48034;SDS011;33812;46.480;6.834;2023-01-08T18:36:25;3.42;;;1.05;;
48034;SDS011;33812;46.480;6.834;2023-01-08T18:40:26;3.13;;;0.80;;
48034;SDS011;33812;46.480;6.834;2023-01-08T18:44:28;2.53;;;0.80;;
48034;SDS011;33812;46.480;6.834;2023-01-08T18:48:33;2.80;;;0.85;;
48034;SDS011;33812;46.480;6.834;2023-01-08T18:57:00;8.40;;;0.90;;
48034;SDS011;33812;46.480;6.834;2023-01-08T19:01:02;1.35;;;0.50;;
48034;SDS011;33812;46.480;6.834;2023-01-08T19:05:07;4.00;;;0.70;;
48034;SDS011;33812;46.480;6.834;2023-01-08T19:13:11;1.17;;;0.57;;
48034;SDS011;33812;46.480;6.834;2023-01-08T19:17:13;2.97;;;0.75;;
48034;SDS011;33812;46.480;6.834;2023-01-08T19:21:16;2.15;;;0.60;;
48034;SDS011;33812;46.480;6.834;2023-01-08T19:25:18;6.00;;;0.60;;
48034;SDS011;33812;46.480;6.834;2023-01-08T19:29:20;2.45;;;0.60;;
48034;SDS011;33812;46.480;6.834;2023-01-08T19:33:22;2.33;;;0.70;;
48034;SDS011;33812;46.480;6.834;2023-01-08T19:37:27;3.97;;;0.68;;
48034;SDS011;33812;46.480;6.834;2023-01-08T19:41:29;0.90;;;0.60;;
48034;SDS011;33812;46.480;6.834;2023-01-08T19:45:48;1.55;;;0.90;;
48034;SDS011;33812;46.480;6.834;2023-01-08T19:49:50;7.65;;;1.00;;
48034;SDS011;33812;46.480;6.834;2023-01-08T19:53:54;1.50;;;0.68;;
48034;SDS011;33812;46.480;6.834;2023-01-08T19:57:57;1.67;;;0.60;;
48034;SDS011;33812;46.480;6.834;2023-01-08T20:01:59;1.02;;;0.50;;
48034;SDS011;33812;46.480;6.834;2023-01-08T20:06:03;1.05;;;0.50;;
48034;SDS011;33812;46.480;6.834;2023-01-08T20:10:08;1.63;;;0.60;;
48034;SDS011;33812;46.480;6.834;2023-01-08T20:14:13;2.65;;;0.47;;
48034;SDS011;33812;46.480;6.834;2023-01-08T20:18:14;3.28;;;0.65;;
48034;SDS011;33812;46.480;6.834;2023-01-08T20:22:16;0.80;;;0.50;;
48034;SDS011;33812;46.480;6.834;2023-01-08T20:26:22;1.48;;;0.55;;
48034;SDS011;33812;46.480;6.834;2023-01-08T20:30:24;1.80;;;0.50;;
48034;SDS011;33812;46.480;6.834;2023-01-08T20:34:26;0.90;;;0.68;;
48034;SDS011;33812;46.480;6.834;2023-01-08T20:38:31;1.65;;;0.93;;
48034;SDS011;33812;46.480;6.834;2023-01-08T20:42:34;5.53;;;0.70;;
48034;SDS011;33812;46.480;6.834;2023-01-08T20:46:36;0.88;;;0.50;;
48034;SDS011;33812;46.480;6.834;2023-01-08T20:50:38;2.00;;;0.60;;
48034;SDS011;33812;46.480;6.834;2023-01-08T20:58:56;0.68;;;0.40;;
48034;SDS011;33812;46.480;6.834;2023-01-08T21:03:01;1.13;;;0.50;;
48034;SDS011;33812;46.480;6.834;2023-01-08T21:07:03;0.88;;;0.45;;
48034;SDS011;33812;46.480;6.834;2023-01-08T21:11:05;1.13;;;0.93;;
48034;SDS011;33812;46.480;6.834;2023-01-08T21:15:09;0.57;;;0.35;;
48034;SDS011;33812;46.480;6.834;2023-01-08T21:19:18;1.77;;;0.60;;
48034;SDS011;33812;46.480;6.834;2023-01-08T21:23:27;17.08;;;0.68;;
48034;SDS011;33812;46.480;6.834;2023-01-08T21:27:34;3.63;;;0.40;;
48034;SDS011;33812;46.480;6.834;2023-01-08T21:31:40;1.42;;;0.40;;
48034;SDS011;33812;46.480;6.834;2023-01-08T21:39:50;1.02;;;0.68;;
48034;SDS011;33812;46.480;6.834;2023-01-08T21:43:54;7.28;;;0.43;;
48034;SDS011;33812;46.480;6.834;2023-01-08T21:48:16;6.30;;;0.60;;
48034;SDS011;33812;46.480;6.834;2023-01-08T21:52:18;1.73;;;0.65;;
48034;SDS011;33812;46.480;6.834;2023-01-08T21:56:37;1.40;;;0.50;;
48034;SDS011;33812;46.480;6.834;2023-01-08T22:00:41;2.70;;;0.70;;
48034;SDS011;33812;46.480;6.834;2023-01-08T22:04:44;0.70;;;0.40;;
48034;SDS011;33812;46.480;6.834;2023-01-08T22:08:49;1.55;;;0.55;;
48034;SDS011;33812;46.480;6.834;2023-01-08T22:12:51;3.22;;;0.60;;
48034;SDS011;33812;46.480;6.834;2023-01-08T22:16:53;3.25;;;0.43;;
48034;SDS011;33812;46.480;6.834;2023-01-08T22:20:59;3.88;;;0.60;;
48034;SDS011;33812;46.480;6.834;2023-01-08T22:25:01;0.68;;;0.40;;
48034;SDS011;33812;46.480;6.834;2023-01-08T22:29:04;1.23;;;0.82;;
48034;SDS011;33812;46.480;6.834;2023-01-08T22:33:06;0.93;;;0.40;;
48034;SDS011;33812;46.480;6.834;2023-01-08T22:37:09;0.47;;;0.38;;
48034;SDS011;33812;46.480;6.834;2023-01-08T22:41:13;0.60;;;0.30;;
48034;SDS011;33812;46.480;6.834;2023-01-08T22:45:16;0.82;;;0.40;;
48034;SDS011;33812;46.480;6.834;2023-01-08T22:49:18;0.52;;;0.40;;
48034;SDS011;33812;46.480;6.834;2023-01-08T22:53:21;0.60;;;0.50;;
48034;SDS011;33812;46.480;6.834;2023-01-08T22:57:22;0.65;;;0.32;;
48034;SDS011;33812;46.480;6.834;2023-01-08T23:01:25;0.90;;;0.50;;
48034;SDS011;33812;46.480;6.834;2023-01-08T23:05:27;1.15;;;0.30;;
48034;SDS011;33812;46.480;6.834;2023-01-08T23:09:30;0.63;;;0.50;;
48034;SDS011;33812;46.480;6.834;2023-01-08T23:13:32;0.35;;;0.35;;
48034;SDS011;33812;46.480;6.834;2023-01-08T23:17:34;0.30;;;0.30;;
48034;SDS011;33812;46.480;6.834;2023-01-08T23:21:36;1.40;;;0.40;;
48034;SDS011;33812;46.480;6.834;2023-01-08T23:25:39;0.30;;;0.22;;
48034;SDS011;33812;46.480;6.834;2023-01-08T23:29:41;0.65;;;0.35;;
48034;SDS011;33812;46.480;6.834;2023-01-08T23:33:43;3.05;;;1.05;;
48034;SDS011;33812;46.480;6.834;2023-01-08T23:37:44;1.00;;;0.40;;
48034;SDS011;33812;46.480;6.834;2023-01-08T23:41:48;1.35;;;0.82;;
48034;SDS011;33812;46.480;6.834;2023-01-08T23:45:49;0.38;;;0.30;;
48034;SDS011;33812;46.480;6.834;2023-01-08T23:49:51;0.75;;;0.60;;
48034;SDS011;33812;46.480;6.834;2023-01-08T23:53:53;0.40;;;0.35;;
48034;SDS011;33812;46.480;6.834;2023-01-08T23:57:56;0.28;;;0.20;;
